sensor_id;sensor_type;location;lat;lon;timestamp;P1;P2;P0
55754;PMS5003;41674;52.290;-1.474;2022-07-03T00:00:24;5;3;
55754;PMS5003;41674;52.290;-1.474;2022-07-03T00:03:01;5;3;
55754;PMS5003;41674;52.290;-1.474;2022-07-03T00:05:32;2;2;
55754;PMS5003;41674;52.290;-1.474;2022-07-03T00:08:03;2;2;
55754;PMS5003;41674;52.290;-1.474;2022-07-03T00:10:35;3;3;
55754;PMS5003;41674;52.290;-1.474;2022-07-03T00:13:07;3;3;
55754;PMS5003;41674;52.290;-1.474;2022-07-03T00:15:38;2;2;
55754;PMS5003;41674;52.290;-1.474;2022-07-03T00:18:09;2;2;
55754;PMS5003;41674;52.290;-1.474;2022-07-03T00:20:47;3;2;
55754;PMS5003;41674;52.290;-1.474;2022-07-03T00:23:25;3;3;
55754;PMS5003;41674;52.290;-1.474;2022-07-03T00:26:00;4;4;
55754;PMS5003;41674;52.290;-1.474;2022-07-03T00:28:35;5;4;
55754;PMS5003;41674;52.290;-1.474;2022-07-03T00:31:06;3;3;
55754;PMS5003;41674;52.290;-1.474;2022-07-03T00:33:41;2;2;
55754;PMS5003;41674;52.290;-1.474;2022-07-03T00:36:16;4;4;
55754;PMS5003;41674;52.290;-1.474;2022-07-03T00:38:54;2;1;
55754;PMS5003;41674;52.290;-1.474;2022-07-03T00:41:26;4;3;
55754;PMS5003;41674;52.290;-1.474;2022-07-03T00:43:59;4;4;
55754;PMS5003;41674;52.290;-1.474;2022-07-03T00:46:31;3;3;
55754;PMS5003;41674;52.290;-1.474;2022-07-03T00:49:02;3;3;
55754;PMS5003;41674;52.290;-1.474;2022-07-03T00:51:37;3;3;
55754;PMS5003;41674;52.290;-1.474;2022-07-03T00:54:16;3;3;
55754;PMS5003;41674;52.290;-1.474;2022-07-03T00:56:50;4;4;
55754;PMS5003;41674;52.290;-1.474;2022-07-03T00:59:25;4;4;
55754;PMS5003;41674;52.290;-1.474;2022-07-03T01:01:59;4;4;
55754;PMS5003;41674;52.290;-1.474;2022-07-03T01:04:36;5;4;
55754;PMS5003;41674;52.290;-1.474;2022-07-03T01:07:18;4;4;
55754;PMS5003;41674;52.290;-1.474;2022-07-03T01:09:59;3;3;
55754;PMS5003;41674;52.290;-1.474;2022-07-03T01:12:38;3;3;
55754;PMS5003;41674;52.290;-1.474;2022-07-03T01:15:24;5;5;
55754;PMS5003;41674;52.290;-1.474;2022-07-03T01:18:14;6;6;
55754;PMS5003;41674;52.290;-1.474;2022-07-03T01:20:57;4;4;
55754;PMS5003;41674;52.290;-1.474;2022-07-03T01:23:40;7;6;
55754;PMS5003;41674;52.290;-1.474;2022-07-03T01:26:33;5;5;
55754;PMS5003;41674;52.290;-1.474;2022-07-03T01:29:11;4;4;
55754;PMS5003;41674;52.290;-1.474;2022-07-03T01:31:57;9;6;
55754;PMS5003;41674;52.290;-1.474;2022-07-03T01:34:34;6;6;
55754;PMS5003;41674;52.290;-1.474;2022-07-03T01:37:13;5;5;
55754;PMS5003;41674;52.290;-1.474;2022-07-03T01:39:52;7;7;
55754;PMS5003;41674;52.290;-1.474;2022-07-03T01:42:24;7;6;
55754;PMS5003;41674;52.290;-1.474;2022-07-03T01:44:56;7;5;
55754;PMS5003;41674;52.290;-1.474;2022-07-03T01:47:38;5;5;
55754;PMS5003;41674;52.290;-1.474;2022-07-03T01:50:17;8;7;
55754;PMS5003;41674;52.290;-1.474;2022-07-03T01:52:51;7;6;
55754;PMS5003;41674;52.290;-1.474;2022-07-03T01:55:25;8;6;
55754;PMS5003;41674;52.290;-1.474;2022-07-03T01:57:59;9;7;
55754;PMS5003;41674;52.290;-1.474;2022-07-03T02:00:36;9;8;
55754;PMS5003;41674;52.290;-1.474;2022-07-03T02:03:24;7;7;
55754;PMS5003;41674;52.290;-1.474;2022-07-03T02:06:02;8;8;
55754;PMS5003;41674;52.290;-1.474;2022-07-03T02:08:39;7;7;
55754;PMS5003;41674;52.290;-1.474;2022-07-03T02:11:18;8;8;
55754;PMS5003;41674;52.290;-1.474;2022-07-03T02:13:59;10;9;
55754;PMS5003;41674;52.290;-1.474;2022-07-03T02:16:49;10;8;
55754;PMS5003;41674;52.290;-1.474;2022-07-03T02:19:27;7;7;
55754;PMS5003;41674;52.290;-1.474;2022-07-03T02:22:08;12;10;
55754;PMS5003;41674;52.290;-1.474;2022-07-03T02:24:42;9;9;
55754;PMS5003;41674;52.290;-1.474;2022-07-03T02:27:16;9;9;
55754;PMS5003;41674;52.290;-1.474;2022-07-03T02:29:54;11;8;
55754;PMS5003;41674;52.290;-1.474;2022-07-03T02:32:30;8;8;
55754;PMS5003;41674;52.290;-1.474;2022-07-03T02:35:07;8;8;
55754;PMS5003;41674;52.290;-1.474;2022-07-03T02:37:44;11;7;
55754;PMS5003;41674;52.290;-1.474;2022-07-03T02:40:26;9;8;
55754;PMS5003;41674;52.290;-1.474;2022-07-03T02:43:08;9;7;
55754;PMS5003;41674;52.290;-1.474;2022-07-03T02:45:48;8;8;
55754;PMS5003;41674;52.290;-1.474;2022-07-03T02:48:29;6;6;
55754;PMS5003;41674;52.290;-1.474;2022-07-03T02:51:09;7;7;
55754;PMS5003;41674;52.290;-1.474;2022-07-03T02:53:56;8;8;
55754;PMS5003;41674;52.290;-1.474;2022-07-03T02:56:39;8;6;
55754;PMS5003;41674;52.290;-1.474;2022-07-03T02:59:53;7;7;
55754;PMS5003;41674;52.290;-1.474;2022-07-03T03:02:42;4;4;
55754;PMS5003;41674;52.290;-1.474;2022-07-03T03:05:28;6;6;
55754;PMS5003;41674;52.290;-1.474;2022-07-03T03:08:11;9;8;
55754;PMS5003;41674;52.290;-1.474;2022-07-03T03:10:56;7;7;
55754;PMS5003;41674;52.290;-1.474;2022-07-03T03:13:39;6;6;
55754;PMS5003;41674;52.290;-1.474;2022-07-03T03:16:21;5;5;
55754;PMS5003;41674;52.290;-1.474;2022-07-03T03:18:55;5;5;
55754;PMS5003;41674;52.290;-1.474;2022-07-03T03:21:28;9;7;
55754;PMS5003;41674;52.290;-1.474;2022-07-03T03:24:13;6;6;
55754;PMS5003;41674;52.290;-1.474;2022-07-03T03:26:46;7;7;
55754;PMS5003;41674;52.290;-1.474;2022-07-03T03:29:19;5;5;
55754;PMS5003;41674;52.290;-1.474;2022-07-03T03:31:53;9;6;
55754;PMS5003;41674;52.290;-1.474;2022-07-03T03:34:26;8;7;
55754;PMS5003;41674;52.290;-1.474;2022-07-03T03:37:02;6;6;
55754;PMS5003;41674;52.290;-1.474;2022-07-03T03:39:35;5;4;
55754;PMS5003;41674;52.290;-1.474;2022-07-03T03:42:09;4;4;
55754;PMS5003;41674;52.290;-1.474;2022-07-03T03:44:43;5;5;
55754;PMS5003;41674;52.290;-1.474;2022-07-03T03:47:16;7;5;
55754;PMS5003;41674;52.290;-1.474;2022-07-03T03:49:49;6;6;
55754;PMS5003;41674;52.290;-1.474;2022-07-03T03:52:27;6;6;
55754;PMS5003;41674;52.290;-1.474;2022-07-03T03:55:06;5;4;
55754;PMS5003;41674;52.290;-1.474;2022-07-03T03:57:39;4;4;
55754;PMS5003;41674;52.290;-1.474;2022-07-03T04:00:15;6;6;
55754;PMS5003;41674;52.290;-1.474;2022-07-03T04:02:47;4;3;
55754;PMS5003;41674;52.290;-1.474;2022-07-03T04:05:19;3;3;
55754;PMS5003;41674;52.290;-1.474;2022-07-03T04:07:51;6;6;
55754;PMS5003;41674;52.290;-1.474;2022-07-03T04:10:23;7;5;
55754;PMS5003;41674;52.290;-1.474;2022-07-03T04:12:55;7;5;
55754;PMS5003;41674;52.290;-1.474;2022-07-03T04:15:27;6;6;
55754;PMS5003;41674;52.290;-1.474;2022-07-03T04:18:03;6;6;
55754;PMS5003;41674;52.290;-1.474;2022-07-03T04:20:36;5;4;
55754;PMS5003;41674;52.290;-1.474;2022-07-03T04:23:13;7;6;
55754;PMS5003;41674;52.290;-1.474;2022-07-03T04:25:44;7;5;
55754;PMS5003;41674;52.290;-1.474;2022-07-03T04:28:16;6;6;
55754;PMS5003;41674;52.290;-1.474;2022-07-03T04:30:48;7;6;
55754;PMS5003;41674;52.290;-1.474;2022-07-03T04:33:20;6;6;
55754;PMS5003;41674;52.290;-1.474;2022-07-03T04:35:56;6;5;
55754;PMS5003;41674;52.290;-1.474;2022-07-03T04:38:30;9;6;
55754;PMS5003;41674;52.290;-1.474;2022-07-03T04:41:02;5;5;
55754;PMS5003;41674;52.290;-1.474;2022-07-03T04:43:33;8;5;
55754;PMS5003;41674;52.290;-1.474;2022-07-03T04:46:21;5;5;
55754;PMS5003;41674;52.290;-1.474;2022-07-03T04:48:53;6;6;
55754;PMS5003;41674;52.290;-1.474;2022-07-03T04:51:25;7;5;
55754;PMS5003;41674;52.290;-1.474;2022-07-03T04:53:57;5;5;
55754;PMS5003;41674;52.290;-1.474;2022-07-03T04:56:29;5;5;
55754;PMS5003;41674;52.290;-1.474;2022-07-03T04:59:00;6;6;
55754;PMS5003;41674;52.290;-1.474;2022-07-03T05:01:32;7;7;
55754;PMS5003;41674;52.290;-1.474;2022-07-03T05:04:03;5;5;
55754;PMS5003;41674;52.290;-1.474;2022-07-03T05:06:36;9;8;
55754;PMS5003;41674;52.290;-1.474;2022-07-03T05:09:07;7;7;
55754;PMS5003;41674;52.290;-1.474;2022-07-03T05:11:39;8;7;
55754;PMS5003;41674;52.290;-1.474;2022-07-03T05:14:10;7;7;
55754;PMS5003;41674;52.290;-1.474;2022-07-03T05:16:42;5;5;
55754;PMS5003;41674;52.290;-1.474;2022-07-03T05:19:14;5;5;
55754;PMS5003;41674;52.290;-1.474;2022-07-03T05:21:46;6;6;
55754;PMS5003;41674;52.290;-1.474;2022-07-03T05:24:17;6;6;
55754;PMS5003;41674;52.290;-1.474;2022-07-03T05:26:51;6;6;
55754;PMS5003;41674;52.290;-1.474;2022-07-03T05:29:22;7;7;
55754;PMS5003;41674;52.290;-1.474;2022-07-03T05:31:54;5;4;
55754;PMS5003;41674;52.290;-1.474;2022-07-03T05:34:26;6;6;
55754;PMS5003;41674;52.290;-1.474;2022-07-03T05:36:57;7;7;
55754;PMS5003;41674;52.290;-1.474;2022-07-03T05:39:29;5;5;
55754;PMS5003;41674;52.290;-1.474;2022-07-03T05:42:00;5;5;
55754;PMS5003;41674;52.290;-1.474;2022-07-03T05:44:31;6;6;
55754;PMS5003;41674;52.290;-1.474;2022-07-03T05:47:04;7;6;
55754;PMS5003;41674;52.290;-1.474;2022-07-03T05:49:37;5;5;
55754;PMS5003;41674;52.290;-1.474;2022-07-03T05:52:10;6;4;
55754;PMS5003;41674;52.290;-1.474;2022-07-03T05:54:45;6;6;
55754;PMS5003;41674;52.290;-1.474;2022-07-03T05:57:24;9;8;
55754;PMS5003;41674;52.290;-1.474;2022-07-03T05:59:57;6;6;
55754;PMS5003;41674;52.290;-1.474;2022-07-03T06:02:30;5;5;
55754;PMS5003;41674;52.290;-1.474;2022-07-03T06:05:04;7;5;
55754;PMS5003;41674;52.290;-1.474;2022-07-03T06:07:39;4;4;
55754;PMS5003;41674;52.290;-1.474;2022-07-03T06:10:13;7;7;
55754;PMS5003;41674;52.290;-1.474;2022-07-03T06:12:46;6;6;
55754;PMS5003;41674;52.290;-1.474;2022-07-03T06:15:19;5;4;
55754;PMS5003;41674;52.290;-1.474;2022-07-03T06:17:54;6;4;
55754;PMS5003;41674;52.290;-1.474;2022-07-03T06:20:30;3;3;
55754;PMS5003;41674;52.290;-1.474;2022-07-03T06:23:05;4;4;
55754;PMS5003;41674;52.290;-1.474;2022-07-03T06:25:38;6;4;
55754;PMS5003;41674;52.290;-1.474;2022-07-03T06:28:11;5;5;
55754;PMS5003;41674;52.290;-1.474;2022-07-03T06:30:44;6;6;
55754;PMS5003;41674;52.290;-1.474;2022-07-03T06:33:18;4;4;
55754;PMS5003;41674;52.290;-1.474;2022-07-03T06:35:52;5;4;
55754;PMS5003;41674;52.290;-1.474;2022-07-03T06:38:25;7;6;
55754;PMS5003;41674;52.290;-1.474;2022-07-03T06:40:58;5;5;
55754;PMS5003;41674;52.290;-1.474;2022-07-03T06:43:33;6;6;
55754;PMS5003;41674;52.290;-1.474;2022-07-03T06:46:11;7;6;
55754;PMS5003;41674;52.290;-1.474;2022-07-03T06:48:50;25;22;
55754;PMS5003;41674;52.290;-1.474;2022-07-03T06:51:26;16;14;
55754;PMS5003;41674;52.290;-1.474;2022-07-03T06:54:00;27;26;
55754;PMS5003;41674;52.290;-1.474;2022-07-03T06:56:34;35;33;
55754;PMS5003;41674;52.290;-1.474;2022-07-03T06:59:06;37;33;
55754;PMS5003;41674;52.290;-1.474;2022-07-03T07:01:43;37;36;
55754;PMS5003;41674;52.290;-1.474;2022-07-03T07:04:18;28;25;
55754;PMS5003;41674;52.290;-1.474;2022-07-03T07:06:56;17;16;
55754;PMS5003;41674;52.290;-1.474;2022-07-03T07:09:29;15;12;
55754;PMS5003;41674;52.290;-1.474;2022-07-03T07:12:03;11;10;
55754;PMS5003;41674;52.290;-1.474;2022-07-03T07:14:43;7;7;
55754;PMS5003;41674;52.290;-1.474;2022-07-03T07:17:16;10;10;
55754;PMS5003;41674;52.290;-1.474;2022-07-03T07:19:52;7;7;
55754;PMS5003;41674;52.290;-1.474;2022-07-03T07:22:36;6;4;
55754;PMS5003;41674;52.290;-1.474;2022-07-03T07:25:11;6;6;
55754;PMS5003;41674;52.290;-1.474;2022-07-03T07:27:45;4;4;
55754;PMS5003;41674;52.290;-1.474;2022-07-03T07:30:23;9;9;
55754;PMS5003;41674;52.290;-1.474;2022-07-03T07:33:04;9;7;
55754;PMS5003;41674;52.290;-1.474;2022-07-03T07:35:54;5;5;
55754;PMS5003;41674;52.290;-1.474;2022-07-03T07:38:26;3;3;
55754;PMS5003;41674;52.290;-1.474;2022-07-03T07:40:58;5;4;
55754;PMS5003;41674;52.290;-1.474;2022-07-03T07:43:34;4;4;
55754;PMS5003;41674;52.290;-1.474;2022-07-03T07:46:05;3;3;
55754;PMS5003;41674;52.290;-1.474;2022-07-03T07:48:38;3;3;
55754;PMS5003;41674;52.290;-1.474;2022-07-03T07:51:10;4;4;
55754;PMS5003;41674;52.290;-1.474;2022-07-03T07:53:42;4;4;
55754;PMS5003;41674;52.290;-1.474;2022-07-03T07:56:14;4;4;
55754;PMS5003;41674;52.290;-1.474;2022-07-03T07:58:45;4;4;
55754;PMS5003;41674;52.290;-1.474;2022-07-03T08:01:17;3;3;
55754;PMS5003;41674;52.290;-1.474;2022-07-03T08:03:48;4;4;
55754;PMS5003;41674;52.290;-1.474;2022-07-03T08:06:20;3;3;
55754;PMS5003;41674;52.290;-1.474;2022-07-03T08:08:52;6;3;
55754;PMS5003;41674;52.290;-1.474;2022-07-03T08:11:23;3;3;
55754;PMS5003;41674;52.290;-1.474;2022-07-03T08:13:57;5;3;
55754;PMS5003;41674;52.290;-1.474;2022-07-03T08:16:29;3;3;
55754;PMS5003;41674;52.290;-1.474;2022-07-03T08:19:01;7;5;
55754;PMS5003;41674;52.290;-1.474;2022-07-03T08:21:33;3;3;
55754;PMS5003;41674;52.290;-1.474;2022-07-03T08:24:04;5;4;
55754;PMS5003;41674;52.290;-1.474;2022-07-03T08:26:36;6;4;
55754;PMS5003;41674;52.290;-1.474;2022-07-03T08:29:08;4;4;
55754;PMS5003;41674;52.290;-1.474;2022-07-03T08:31:44;3;3;
55754;PMS5003;41674;52.290;-1.474;2022-07-03T08:34:17;4;4;
55754;PMS5003;41674;52.290;-1.474;2022-07-03T08:37:00;3;3;
55754;PMS5003;41674;52.290;-1.474;2022-07-03T08:39:32;5;5;
55754;PMS5003;41674;52.290;-1.474;2022-07-03T08:42:05;5;5;
55754;PMS5003;41674;52.290;-1.474;2022-07-03T08:44:41;4;4;
55754;PMS5003;41674;52.290;-1.474;2022-07-03T08:47:15;4;4;
55754;PMS5003;41674;52.290;-1.474;2022-07-03T08:49:47;4;4;
55754;PMS5003;41674;52.290;-1.474;2022-07-03T08:52:20;6;4;
55754;PMS5003;41674;52.290;-1.474;2022-07-03T08:54:53;3;3;
55754;PMS5003;41674;52.290;-1.474;2022-07-03T08:57:24;4;4;
55754;PMS5003;41674;52.290;-1.474;2022-07-03T08:59:57;4;3;
55754;PMS5003;41674;52.290;-1.474;2022-07-03T09:02:36;6;4;
55754;PMS5003;41674;52.290;-1.474;2022-07-03T09:05:10;6;4;
55754;PMS5003;41674;52.290;-1.474;2022-07-03T09:07:43;5;5;
55754;PMS5003;41674;52.290;-1.474;2022-07-03T09:10:16;4;3;
55754;PMS5003;41674;52.290;-1.474;2022-07-03T09:12:48;4;4;
55754;PMS5003;41674;52.290;-1.474;2022-07-03T09:15:19;3;3;
55754;PMS5003;41674;52.290;-1.474;2022-07-03T09:17:59;4;4;
55754;PMS5003;41674;52.290;-1.474;2022-07-03T09:20:33;2;2;
55754;PMS5003;41674;52.290;-1.474;2022-07-03T09:23:11;5;2;
55754;PMS5003;41674;52.290;-1.474;2022-07-03T09:26:00;4;4;
55754;PMS5003;41674;52.290;-1.474;2022-07-03T09:28:43;4;4;
55754;PMS5003;41674;52.290;-1.474;2022-07-03T09:31:22;4;4;
55754;PMS5003;41674;52.290;-1.474;2022-07-03T09:33:55;3;3;
55754;PMS5003;41674;52.290;-1.474;2022-07-03T09:36:40;3;3;
55754;PMS5003;41674;52.290;-1.474;2022-07-03T09:39:14;5;5;
55754;PMS5003;41674;52.290;-1.474;2022-07-03T09:41:51;4;4;
55754;PMS5003;41674;52.290;-1.474;2022-07-03T09:44:28;14;10;
55754;PMS5003;41674;52.290;-1.474;2022-07-03T09:47:05;6;6;
55754;PMS5003;41674;52.290;-1.474;2022-07-03T09:49:46;3;3;
55754;PMS5003;41674;52.290;-1.474;2022-07-03T09:52:28;4;2;
55754;PMS5003;41674;52.290;-1.474;2022-07-03T09:55:12;4;4;
55754;PMS5003;41674;52.290;-1.474;2022-07-03T09:57:46;3;3;
55754;PMS5003;41674;52.290;-1.474;2022-07-03T10:00:32;3;3;
55754;PMS5003;41674;52.290;-1.474;2022-07-03T10:03:05;3;2;
55754;PMS5003;41674;52.290;-1.474;2022-07-03T10:05:39;3;3;
55754;PMS5003;41674;52.290;-1.474;2022-07-03T10:08:15;2;2;
55754;PMS5003;41674;52.290;-1.474;2022-07-03T10:10:47;0;0;
55754;PMS5003;41674;52.290;-1.474;2022-07-03T10:13:20;2;1;
55754;PMS5003;41674;52.290;-1.474;2022-07-03T10:15:52;2;2;
55754;PMS5003;41674;52.290;-1.474;2022-07-03T10:18:26;2;2;
55754;PMS5003;41674;52.290;-1.474;2022-07-03T10:21:01;2;2;
55754;PMS5003;41674;52.290;-1.474;2022-07-03T10:23:47;2;2;
55754;PMS5003;41674;52.290;-1.474;2022-07-03T10:23:57;2;2;
55754;PMS5003;41674;52.290;-1.474;2022-07-03T10:26:29;0;0;
55754;PMS5003;41674;52.290;-1.474;2022-07-03T10:29:03;2;2;
55754;PMS5003;41674;52.290;-1.474;2022-07-03T10:31:36;0;0;
55754;PMS5003;41674;52.290;-1.474;2022-07-03T10:34:08;2;2;
55754;PMS5003;41674;52.290;-1.474;2022-07-03T10:36:47;3;3;
55754;PMS5003;41674;52.290;-1.474;2022-07-03T10:39:26;1;1;
55754;PMS5003;41674;52.290;-1.474;2022-07-03T10:42:08;2;2;
55754;PMS5003;41674;52.290;-1.474;2022-07-03T10:45:03;2;2;
55754;PMS5003;41674;52.290;-1.474;2022-07-03T10:47:38;3;3;
55754;PMS5003;41674;52.290;-1.474;2022-07-03T10:50:13;1;1;
55754;PMS5003;41674;52.290;-1.474;2022-07-03T10:52:45;4;4;
55754;PMS5003;41674;52.290;-1.474;2022-07-03T10:55:17;3;3;
55754;PMS5003;41674;52.290;-1.474;2022-07-03T10:58:21;2;2;
55754;PMS5003;41674;52.290;-1.474;2022-07-03T11:00:58;1;1;
55754;PMS5003;41674;52.290;-1.474;2022-07-03T11:04:07;2;2;
55754;PMS5003;41674;52.290;-1.474;2022-07-03T11:07:11;2;2;
55754;PMS5003;41674;52.290;-1.474;2022-07-03T11:09:42;2;2;
55754;PMS5003;41674;52.290;-1.474;2022-07-03T11:12:14;2;2;
55754;PMS5003;41674;52.290;-1.474;2022-07-03T11:14:45;3;3;
55754;PMS5003;41674;52.290;-1.474;2022-07-03T11:17:16;2;2;
55754;PMS5003;41674;52.290;-1.474;2022-07-03T11:19:49;2;2;
55754;PMS5003;41674;52.290;-1.474;2022-07-03T11:22:21;3;3;
55754;PMS5003;41674;52.290;-1.474;2022-07-03T11:24:58;3;3;
55754;PMS5003;41674;52.290;-1.474;2022-07-03T11:27:44;2;2;
55754;PMS5003;41674;52.290;-1.474;2022-07-03T11:30:15;2;2;
55754;PMS5003;41674;52.290;-1.474;2022-07-03T11:32:50;3;3;
55754;PMS5003;41674;52.290;-1.474;2022-07-03T11:35:57;5;4;
55754;PMS5003;41674;52.290;-1.474;2022-07-03T11:38:29;4;4;
55754;PMS5003;41674;52.290;-1.474;2022-07-03T11:41:01;1;1;
55754;PMS5003;41674;52.290;-1.474;2022-07-03T11:43:36;3;3;
55754;PMS5003;41674;52.290;-1.474;2022-07-03T11:46:16;4;4;
55754;PMS5003;41674;52.290;-1.474;2022-07-03T11:48:49;4;3;
55754;PMS5003;41674;52.290;-1.474;2022-07-03T11:51:36;3;1;
55754;PMS5003;41674;52.290;-1.474;2022-07-03T11:54:09;3;3;
55754;PMS5003;41674;52.290;-1.474;2022-07-03T11:56:40;4;3;
55754;PMS5003;41674;52.290;-1.474;2022-07-03T11:59:12;3;3;
55754;PMS5003;41674;52.290;-1.474;2022-07-03T12:01:44;4;4;
55754;PMS5003;41674;52.290;-1.474;2022-07-03T12:04:16;3;3;
55754;PMS5003;41674;52.290;-1.474;2022-07-03T12:06:50;3;3;
55754;PMS5003;41674;52.290;-1.474;2022-07-03T12:09:22;3;3;
55754;PMS5003;41674;52.290;-1.474;2022-07-03T12:12:00;3;3;
55754;PMS5003;41674;52.290;-1.474;2022-07-03T12:14:34;4;4;
55754;PMS5003;41674;52.290;-1.474;2022-07-03T12:17:08;3;3;
55754;PMS5003;41674;52.290;-1.474;2022-07-03T12:19:44;2;2;
55754;PMS5003;41674;52.290;-1.474;2022-07-03T12:22:22;3;2;
55754;PMS5003;41674;52.290;-1.474;2022-07-03T12:24:55;5;3;
55754;PMS5003;41674;52.290;-1.474;2022-07-03T12:27:29;5;5;
55754;PMS5003;41674;52.290;-1.474;2022-07-03T12:30:00;6;4;
55754;PMS5003;41674;52.290;-1.474;2022-07-03T12:32:33;5;4;
55754;PMS5003;41674;52.290;-1.474;2022-07-03T12:35:04;6;6;
55754;PMS5003;41674;52.290;-1.474;2022-07-03T12:37:37;5;5;
55754;PMS5003;41674;52.290;-1.474;2022-07-03T12:40:11;4;4;
55754;PMS5003;41674;52.290;-1.474;2022-07-03T12:42:49;2;2;
55754;PMS5003;41674;52.290;-1.474;2022-07-03T12:45:24;3;3;
55754;PMS5003;41674;52.290;-1.474;2022-07-03T12:47:57;2;2;
55754;PMS5003;41674;52.290;-1.474;2022-07-03T12:50:47;1;1;
55754;PMS5003;41674;52.290;-1.474;2022-07-03T12:53:28;2;2;
55754;PMS5003;41674;52.290;-1.474;2022-07-03T12:56:06;3;3;
55754;PMS5003;41674;52.290;-1.474;2022-07-03T12:58:40;3;3;
55754;PMS5003;41674;52.290;-1.474;2022-07-03T13:01:23;4;4;
55754;PMS5003;41674;52.290;-1.474;2022-07-03T13:03:55;4;4;
55754;PMS5003;41674;52.290;-1.474;2022-07-03T13:06:26;5;5;
55754;PMS5003;41674;52.290;-1.474;2022-07-03T13:09:00;2;2;
55754;PMS5003;41674;52.290;-1.474;2022-07-03T13:11:39;3;3;
55754;PMS5003;41674;52.290;-1.474;2022-07-03T13:14:12;3;3;
55754;PMS5003;41674;52.290;-1.474;2022-07-03T13:16:46;4;4;
55754;PMS5003;41674;52.290;-1.474;2022-07-03T13:19:20;4;4;
55754;PMS5003;41674;52.290;-1.474;2022-07-03T13:21:55;5;5;
55754;PMS5003;41674;52.290;-1.474;2022-07-03T13:24:29;4;4;
55754;PMS5003;41674;52.290;-1.474;2022-07-03T13:27:01;4;3;
55754;PMS5003;41674;52.290;-1.474;2022-07-03T13:29:39;5;5;
55754;PMS5003;41674;52.290;-1.474;2022-07-03T13:32:11;3;2;
55754;PMS5003;41674;52.290;-1.474;2022-07-03T13:34:50;5;5;
55754;PMS5003;41674;52.290;-1.474;2022-07-03T13:37:23;2;2;
55754;PMS5003;41674;52.290;-1.474;2022-07-03T13:39:55;3;2;
55754;PMS5003;41674;52.290;-1.474;2022-07-03T13:42:26;4;4;
55754;PMS5003;41674;52.290;-1.474;2022-07-03T13:45:07;4;4;
55754;PMS5003;41674;52.290;-1.474;2022-07-03T13:47:41;4;4;
55754;PMS5003;41674;52.290;-1.474;2022-07-03T13:50:14;2;2;
55754;PMS5003;41674;52.290;-1.474;2022-07-03T13:52:45;4;3;
55754;PMS5003;41674;52.290;-1.474;2022-07-03T13:55:17;4;4;
55754;PMS5003;41674;52.290;-1.474;2022-07-03T13:57:48;2;2;
55754;PMS5003;41674;52.290;-1.474;2022-07-03T14:00:19;3;3;
55754;PMS5003;41674;52.290;-1.474;2022-07-03T14:02:52;3;3;
55754;PMS5003;41674;52.290;-1.474;2022-07-03T14:05:25;4;2;
55754;PMS5003;41674;52.290;-1.474;2022-07-03T14:07:56;3;3;
55754;PMS5003;41674;52.290;-1.474;2022-07-03T14:10:33;4;4;
55754;PMS5003;41674;52.290;-1.474;2022-07-03T14:13:05;2;2;
55754;PMS5003;41674;52.290;-1.474;2022-07-03T14:15:36;4;3;
55754;PMS5003;41674;52.290;-1.474;2022-07-03T14:18:14;3;3;
55754;PMS5003;41674;52.290;-1.474;2022-07-03T14:20:50;2;2;
55754;PMS5003;41674;52.290;-1.474;2022-07-03T14:23:22;3;3;
55754;PMS5003;41674;52.290;-1.474;2022-07-03T14:25:54;2;2;
55754;PMS5003;41674;52.290;-1.474;2022-07-03T14:28:26;3;3;
55754;PMS5003;41674;52.290;-1.474;2022-07-03T14:30:57;3;3;
55754;PMS5003;41674;52.290;-1.474;2022-07-03T14:33:30;3;3;
55754;PMS5003;41674;52.290;-1.474;2022-07-03T14:36:02;1;1;
55754;PMS5003;41674;52.290;-1.474;2022-07-03T14:38:34;2;2;
55754;PMS5003;41674;52.290;-1.474;2022-07-03T14:41:05;3;2;
55754;PMS5003;41674;52.290;-1.474;2022-07-03T14:43:37;2;2;
55754;PMS5003;41674;52.290;-1.474;2022-07-03T14:46:09;3;2;
55754;PMS5003;41674;52.290;-1.474;2022-07-03T14:48:41;3;3;
55754;PMS5003;41674;52.290;-1.474;2022-07-03T14:51:13;5;4;
55754;PMS5003;41674;52.290;-1.474;2022-07-03T14:53:44;5;5;
55754;PMS5003;41674;52.290;-1.474;2022-07-03T14:56:17;4;3;
55754;PMS5003;41674;52.290;-1.474;2022-07-03T14:58:53;4;4;
55754;PMS5003;41674;52.290;-1.474;2022-07-03T15:01:25;4;3;
55754;PMS5003;41674;52.290;-1.474;2022-07-03T15:03:59;3;3;
55754;PMS5003;41674;52.290;-1.474;2022-07-03T15:06:32;3;3;
55754;PMS5003;41674;52.290;-1.474;2022-07-03T15:09:04;2;2;
55754;PMS5003;41674;52.290;-1.474;2022-07-03T15:11:39;3;3;
55754;PMS5003;41674;52.290;-1.474;2022-07-03T15:14:18;3;3;
55754;PMS5003;41674;52.290;-1.474;2022-07-03T15:16:51;4;4;
55754;PMS5003;41674;52.290;-1.474;2022-07-03T15:19:24;4;4;
55754;PMS5003;41674;52.290;-1.474;2022-07-03T15:21:57;4;4;
55754;PMS5003;41674;52.290;-1.474;2022-07-03T15:24:30;3;3;
55754;PMS5003;41674;52.290;-1.474;2022-07-03T15:27:02;3;3;
55754;PMS5003;41674;52.290;-1.474;2022-07-03T15:29:37;3;3;
55754;PMS5003;41674;52.290;-1.474;2022-07-03T15:32:11;4;4;
55754;PMS5003;41674;52.290;-1.474;2022-07-03T15:34:57;3;3;
55754;PMS5003;41674;52.290;-1.474;2022-07-03T15:37:35;3;3;
55754;PMS5003;41674;52.290;-1.474;2022-07-03T15:40:23;3;3;
55754;PMS5003;41674;52.290;-1.474;2022-07-03T15:43:10;2;2;
55754;PMS5003;41674;52.290;-1.474;2022-07-03T15:45:58;4;4;
55754;PMS5003;41674;52.290;-1.474;2022-07-03T15:48:51;4;4;
55754;PMS5003;41674;52.290;-1.474;2022-07-03T15:51:50;5;5;
55754;PMS5003;41674;52.290;-1.474;2022-07-03T15:54:44;4;4;
55754;PMS5003;41674;52.290;-1.474;2022-07-03T15:57:25;3;3;
55754;PMS5003;41674;52.290;-1.474;2022-07-03T16:00:19;3;3;
55754;PMS5003;41674;52.290;-1.474;2022-07-03T16:03:02;5;5;
55754;PMS5003;41674;52.290;-1.474;2022-07-03T16:05:49;2;2;
55754;PMS5003;41674;52.290;-1.474;2022-07-03T16:08:23;4;3;
55754;PMS5003;41674;52.290;-1.474;2022-07-03T16:11:05;3;2;
55754;PMS5003;41674;52.290;-1.474;2022-07-03T16:13:39;2;2;
55754;PMS5003;41674;52.290;-1.474;2022-07-03T16:16:15;3;3;
55754;PMS5003;41674;52.290;-1.474;2022-07-03T16:19:03;3;3;
55754;PMS5003;41674;52.290;-1.474;2022-07-03T16:21:43;3;3;
55754;PMS5003;41674;52.290;-1.474;2022-07-03T16:24:16;2;2;
55754;PMS5003;41674;52.290;-1.474;2022-07-03T16:26:51;3;3;
55754;PMS5003;41674;52.290;-1.474;2022-07-03T16:29:26;4;4;
55754;PMS5003;41674;52.290;-1.474;2022-07-03T16:32:01;3;3;
55754;PMS5003;41674;52.290;-1.474;2022-07-03T16:34:40;3;3;
55754;PMS5003;41674;52.290;-1.474;2022-07-03T16:37:26;4;3;
55754;PMS5003;41674;52.290;-1.474;2022-07-03T16:40:16;3;3;
55754;PMS5003;41674;52.290;-1.474;2022-07-03T16:42:53;3;3;
55754;PMS5003;41674;52.290;-1.474;2022-07-03T16:45:34;2;2;
55754;PMS5003;41674;52.290;-1.474;2022-07-03T16:48:18;3;3;
55754;PMS5003;41674;52.290;-1.474;2022-07-03T16:51:05;2;2;
55754;PMS5003;41674;52.290;-1.474;2022-07-03T16:53:57;5;2;
55754;PMS5003;41674;52.290;-1.474;2022-07-03T16:56:32;5;3;
55754;PMS5003;41674;52.290;-1.474;2022-07-03T16:59:08;5;2;
55754;PMS5003;41674;52.290;-1.474;2022-07-03T17:01:47;3;3;
55754;PMS5003;41674;52.290;-1.474;2022-07-03T17:04:29;3;3;
55754;PMS5003;41674;52.290;-1.474;2022-07-03T17:07:03;2;1;
55754;PMS5003;41674;52.290;-1.474;2022-07-03T17:09:55;6;6;
